createdAt,value
2022-08-05T00:00:18.491Z,39.42
2022-08-05T00:02:51.512Z,41.16
2022-08-05T00:05:27.484Z,40.70
2022-08-05T00:08:32.603Z,41.25
2022-08-05T00:11:00.881Z,42.52
2022-08-05T00:13:39.608Z,42.52
2022-08-05T00:16:12.661Z,40.85
2022-08-05T00:18:42.326Z,38.79
2022-08-05T00:21:10.935Z,39.36
2022-08-05T00:23:46.251Z,43.59
2022-08-05T00:26:22.043Z,43.71
2022-08-05T00:28:51.841Z,43.38
2022-08-05T00:31:54.085Z,42.86
2022-08-05T00:34:53.951Z,42.46
2022-08-05T00:37:12.782Z,41.51
2022-08-05T00:39:44.187Z,41.30
2022-08-05T00:42:32.913Z,40.71
2022-08-05T00:45:02.697Z,40.71
2022-08-05T00:47:30.492Z,41.58
2022-08-05T00:50:18.599Z,40.64
2022-08-05T00:52:48.843Z,40.16
2022-08-05T00:55:16.591Z,40.06
2022-08-05T00:57:58.488Z,39.47
2022-08-05T01:00:28.971Z,40.71
2022-08-05T01:02:59.757Z,40.08
2022-08-05T01:05:28.191Z,39.59
2022-08-05T01:08:41.930Z,39.04
2022-08-05T01:10:51.645Z,39.37
2022-08-05T01:13:27.394Z,40.21
2022-08-05T01:16:26.529Z,40.58
2022-08-05T01:19:00.878Z,39.24
2022-08-05T01:22:18.695Z,38.74
2022-08-05T01:25:04.631Z,39.02
2022-08-05T01:28:03.782Z,40.23
2022-08-05T01:30:37.526Z,40.95
2022-08-05T01:33:08.385Z,40.11
2022-08-05T01:35:52.147Z,39.32
2022-08-05T01:38:27.229Z,40.42
2022-08-05T01:40:59.710Z,40.77
2022-08-05T01:43:29.635Z,41.02
2022-08-05T01:46:07.493Z,39.82
2022-08-05T01:48:49.548Z,40.54
2022-08-05T01:51:19.904Z,40.38
2022-08-05T01:53:57.361Z,42.75
2022-08-05T01:58:13.576Z,41.07
2022-08-05T01:59:24.082Z,40.39
2022-08-05T02:01:57.724Z,39.81
2022-08-05T02:04:29.936Z,40.78
2022-08-05T02:06:59.808Z,41.18
2022-08-05T02:09:31.633Z,41.48
2022-08-05T02:12:06.722Z,40.36
2022-08-05T02:14:47.092Z,42.62
2022-08-05T02:18:28.423Z,40.92
2022-08-05T02:20:21.241Z,41.41
2022-08-05T02:22:57.959Z,39.38
2022-08-05T02:25:33.049Z,39.61
2022-08-05T02:28:04.310Z,38.20
2022-08-05T02:30:42.676Z,40.00
2022-08-05T02:33:24.629Z,39.84
2022-08-05T02:36:04.575Z,40.03
2022-08-05T02:38:35.192Z,40.41
2022-08-05T02:41:14.732Z,39.24
2022-08-05T02:44:02.774Z,40.91
2022-08-05T02:46:53.198Z,40.95
2022-08-05T02:49:26.722Z,41.54
2022-08-05T02:52:02.840Z,40.48
2022-08-05T02:54:36.483Z,44.02
2022-08-05T02:57:10.365Z,46.74
2022-08-05T02:59:56.143Z,46.50
2022-08-05T03:02:32.727Z,47.16
2022-08-05T03:05:02.148Z,46.67
2022-08-05T03:08:00.157Z,47.04
2022-08-05T03:10:24.571Z,47.43
2022-08-05T03:12:54.010Z,47.70
2022-08-05T03:15:23.722Z,45.97
2022-08-05T03:17:55.962Z,46.55
2022-08-05T03:20:25.622Z,45.32
2022-08-05T03:22:57.102Z,44.43
2022-08-05T03:25:32.711Z,46.68
2022-08-05T03:28:13.979Z,47.34
2022-08-05T03:30:42.523Z,47.82
2022-08-05T03:33:12.123Z,47.25
2022-08-05T03:35:41.829Z,47.61
2022-08-05T03:38:12.162Z,48.15
2022-08-05T03:40:41.733Z,47.74
2022-08-05T03:43:58.307Z,45.60
2022-08-05T03:46:01.705Z,42.61
2022-08-05T03:48:35.130Z,44.95
2022-08-05T03:52:49.112Z,45.62
2022-08-05T03:55:52.077Z,44.77
2022-08-05T03:56:58.844Z,45.70
2022-08-05T03:59:46.753Z,44.01
2022-08-05T04:02:38.744Z,43.27
2022-08-05T04:05:10.341Z,41.84
2022-08-05T04:07:57.287Z,42.36
2022-08-05T04:10:37.629Z,44.84
2022-08-05T04:13:07.448Z,46.44
2022-08-05T04:15:36.555Z,47.32
2022-08-05T04:18:07.042Z,47.60
2022-08-05T04:20:37.221Z,48.55
2022-08-05T04:23:05.324Z,48.36
2022-08-05T04:25:56.789Z,47.67
2022-08-05T04:28:30.610Z,49.19
2022-08-05T04:31:00.821Z,48.83
2022-08-05T04:33:54.676Z,47.42
2022-08-05T04:36:45.319Z,48.67
2022-08-05T04:39:07.812Z,49.22
2022-08-05T04:41:37.262Z,50.21
2022-08-05T04:44:09.559Z,50.32
2022-08-05T04:46:38.572Z,50.12
2022-08-05T04:49:14.852Z,50.64
2022-08-05T04:51:45.042Z,51.54
2022-08-05T04:54:14.631Z,53.66
2022-08-05T04:56:43.604Z,53.49
2022-08-05T04:59:22.315Z,53.01
2022-08-05T05:02:08.197Z,55.20
2022-08-05T05:04:43.906Z,54.40
2022-08-05T05:07:17.312Z,54.38
2022-08-05T05:09:45.214Z,52.89
2022-08-05T05:12:13.006Z,52.58
2022-08-05T05:14:50.662Z,54.42
2022-08-05T05:17:23.953Z,52.10
2022-08-05T05:19:56.646Z,50.80
2022-08-05T05:22:26.894Z,49.46
2022-08-05T05:25:00.311Z,50.13
2022-08-05T05:27:44.434Z,49.27
2022-08-05T05:30:31.542Z,48.56
2022-08-05T05:33:03.802Z,46.60
2022-08-05T05:35:45.245Z,47.84
2022-08-05T05:38:15.038Z,46.20
2022-08-05T05:40:51.843Z,44.81
2022-08-05T05:43:21.790Z,45.32
2022-08-05T05:45:56.033Z,46.03
2022-08-05T05:48:27.483Z,45.34
2022-08-05T05:50:55.513Z,45.65
2022-08-05T05:53:24.792Z,44.94
2022-08-05T05:56:01.217Z,45.20
2022-08-05T05:58:32.289Z,45.04
2022-08-05T06:01:02.405Z,45.38
2022-08-05T06:04:01.894Z,45.62
2022-08-05T06:06:33.009Z,44.84
2022-08-05T06:09:04.826Z,45.25
2022-08-05T06:11:32.781Z,44.71
2022-08-05T06:14:00.981Z,44.35
2022-08-05T06:16:32.744Z,43.67
2022-08-05T06:19:07.442Z,43.69
2022-08-05T06:21:38.794Z,42.55
2022-08-05T06:24:12.847Z,42.81
2022-08-05T06:26:51.127Z,43.50
2022-08-05T06:29:42.878Z,42.88
2022-08-05T06:32:20.886Z,42.91
2022-08-05T06:34:56.107Z,40.41
2022-08-05T06:37:56.137Z,42.87
2022-08-05T06:40:20.901Z,41.52
2022-08-05T06:42:52.139Z,42.70
2022-08-05T06:45:44.981Z,41.07
2022-08-05T06:48:36.384Z,42.24
2022-08-05T06:50:58.001Z,42.19
2022-08-05T06:53:28.212Z,41.41
2022-08-05T06:55:59.221Z,39.83
2022-08-05T06:58:29.645Z,39.78
2022-08-05T07:01:03.504Z,39.29
2022-08-05T07:03:33.211Z,42.00
2022-08-05T07:06:05.457Z,41.90
2022-08-05T07:08:34.194Z,39.47
2022-08-05T07:11:04.840Z,39.12
2022-08-05T07:13:59.344Z,38.62
2022-08-05T07:18:08.486Z,39.04
2022-08-05T07:22:27.901Z,38.68
2022-08-05T07:24:58.651Z,38.17
2022-08-05T07:27:58.693Z,38.63
2022-08-05T07:30:25.483Z,35.54
2022-08-05T07:32:56.201Z,34.42
2022-08-05T07:35:56.037Z,35.90
2022-08-05T07:38:32.850Z,37.76
2022-08-05T07:41:17.197Z,35.24
2022-08-05T07:43:51.305Z,38.74
2022-08-05T07:46:25.458Z,42.88
2022-08-05T07:49:02.440Z,42.89
2022-08-05T07:51:37.044Z,44.71
2022-08-05T07:54:08.305Z,43.70
2022-08-05T07:57:01.343Z,39.44
2022-08-05T07:59:38.052Z,39.79
2022-08-05T08:02:15.502Z,42.99
2022-08-05T08:04:46.709Z,40.65
2022-08-05T08:07:15.374Z,41.19
2022-08-05T08:09:43.722Z,41.28
2022-08-05T08:12:35.014Z,40.13
2022-08-05T08:15:03.655Z,40.84
2022-08-05T08:17:32.940Z,40.14
2022-08-05T08:20:44.402Z,40.38
2022-08-05T08:22:53.419Z,39.96
2022-08-05T08:25:26.732Z,37.12
2022-08-05T08:28:18.185Z,38.21
2022-08-05T08:30:49.653Z,37.30
2022-08-05T08:33:17.813Z,38.27
2022-08-05T08:35:52.982Z,37.02
2022-08-05T08:38:35.309Z,37.15
2022-08-05T08:41:06.733Z,37.35
2022-08-05T08:45:17.743Z,36.80
2022-08-05T08:46:28.441Z,35.77
2022-08-05T08:49:06.402Z,38.57
2022-08-05T08:52:03.069Z,37.06
2022-08-05T08:54:36.460Z,36.62
2022-08-05T08:57:11.290Z,34.74
2022-08-05T08:59:41.854Z,34.00
2022-08-05T09:02:19.096Z,36.06
2022-08-05T09:05:16.482Z,35.01
2022-08-05T09:07:39.776Z,37.02
2022-08-05T09:10:27.121Z,33.04
2022-08-05T09:13:04.735Z,29.95
2022-08-05T09:15:36.829Z,30.36
2022-08-05T09:18:09.156Z,31.91
2022-08-05T09:20:38.414Z,33.70
2022-08-05T09:23:18.875Z,35.43
2022-08-05T09:26:01.630Z,33.64
2022-08-05T09:28:34.213Z,31.30
2022-08-05T09:31:18.198Z,30.54
2022-08-05T09:33:54.850Z,28.42
2022-08-05T09:36:27.575Z,27.30
2022-08-05T09:39:03.019Z,24.81
2022-08-05T09:41:32.873Z,25.56
2022-08-05T09:44:06.210Z,25.27
2022-08-05T09:46:35.846Z,25.48
2022-08-05T09:49:19.047Z,23.24
2022-08-05T09:51:49.343Z,26.49
2022-08-05T09:54:21.423Z,30.62
2022-08-05T09:57:01.110Z,31.49
2022-08-05T09:59:35.067Z,31.60
2022-08-05T10:02:05.234Z,31.14
2022-08-05T10:04:40.989Z,27.17
2022-08-05T10:07:19.659Z,27.64
2022-08-05T10:10:13.806Z,30.11
2022-08-05T10:12:49.667Z,30.20
2022-08-05T10:15:25.750Z,30.19
2022-08-05T10:18:11.780Z,30.42
2022-08-05T10:20:44.617Z,29.73
2022-08-05T10:23:34.034Z,28.83
2022-08-05T10:26:08.428Z,27.12
2022-08-05T10:28:42.813Z,31.73
2022-08-05T10:32:48.155Z,30.73
2022-08-05T10:34:01.385Z,27.62
2022-08-05T10:36:33.944Z,28.94
2022-08-05T10:39:10.012Z,29.51
2022-08-05T10:41:48.244Z,24.38
2022-08-05T10:44:20.234Z,22.81
2022-08-05T10:46:50.859Z,23.66
2022-08-05T10:49:26.779Z,23.44
2022-08-05T10:52:10.343Z,22.82
2022-08-05T10:54:56.093Z,19.49
2022-08-05T10:57:31.800Z,23.58
2022-08-05T11:00:19.577Z,25.66
2022-08-05T11:03:25.119Z,28.19
2022-08-05T11:06:05.670Z,22.65
2022-08-05T11:08:37.885Z,21.72
2022-08-05T11:11:44.706Z,20.47
2022-08-05T11:14:42.909Z,18.44
2022-08-05T11:17:56.819Z,17.36
2022-08-05T11:20:43.714Z,18.06
2022-08-05T11:24:05.750Z,18.73
2022-08-05T11:26:43.187Z,22.01
2022-08-05T11:29:38.104Z,24.54
2022-08-05T11:32:24.621Z,21.77
2022-08-05T11:34:54.354Z,23.76
2022-08-05T11:38:29.527Z,22.66
2022-08-05T11:41:34.996Z,25.26
2022-08-05T11:44:04.725Z,24.40
2022-08-05T11:46:37.866Z,26.52
2022-08-05T11:49:25.666Z,24.56
2022-08-05T11:51:54.282Z,24.25
2022-08-05T11:54:33.737Z,22.20
2022-08-05T11:57:07.942Z,21.37
2022-08-05T11:59:49.782Z,22.58
2022-08-05T12:02:29.947Z,24.06
2022-08-05T12:05:01.060Z,22.75
2022-08-05T12:08:09.559Z,23.13
2022-08-05T12:10:24.894Z,22.64
2022-08-05T12:13:15.470Z,24.93
2022-08-05T12:15:45.142Z,20.08
2022-08-05T12:18:20.502Z,21.79
2022-08-05T12:20:48.496Z,20.02
2022-08-05T12:23:17.176Z,19.11
2022-08-05T12:25:53.454Z,17.12
2022-08-05T12:28:39.361Z,18.63
2022-08-05T12:31:07.373Z,20.21
2022-08-05T12:33:37.006Z,19.18
2022-08-05T12:36:09.138Z,18.99
2022-08-05T12:38:39.724Z,18.65
2022-08-05T12:41:12.870Z,19.32
2022-08-05T12:43:54.890Z,22.69
2022-08-05T12:46:29.386Z,20.96
2022-08-05T12:48:59.308Z,21.40
2022-08-05T12:52:13.116Z,18.44
2022-08-05T12:54:26.541Z,18.50
2022-08-05T12:56:56.248Z,19.69
2022-08-05T12:59:27.442Z,21.35
2022-08-05T13:02:07.615Z,22.35
2022-08-05T13:04:41.837Z,21.15
2022-08-05T13:07:55.973Z,19.89
2022-08-05T13:10:12.502Z,19.46
2022-08-05T13:12:42.599Z,19.93
2022-08-05T13:15:24.494Z,19.36
2022-08-05T13:18:08.457Z,20.22
2022-08-05T13:20:40.355Z,20.23
2022-08-05T13:23:08.614Z,20.27
2022-08-05T13:25:51.872Z,19.42
2022-08-05T13:28:24.203Z,18.48
2022-08-05T13:30:54.103Z,18.37
2022-08-05T13:34:21.228Z,20.50
2022-08-05T13:36:09.865Z,19.96
2022-08-05T13:38:38.536Z,19.74
2022-08-05T13:41:10.600Z,19.64
2022-08-05T13:43:44.437Z,19.70
2022-08-05T13:46:16.368Z,20.24
2022-08-05T13:48:58.127Z,20.03
2022-08-05T13:51:40.285Z,20.51
2022-08-05T13:54:12.971Z,22.32
2022-08-05T13:56:44.958Z,21.95
2022-08-05T13:59:20.245Z,23.19
2022-08-05T14:01:57.717Z,21.81
2022-08-05T14:04:50.211Z,22.94
2022-08-05T14:07:26.042Z,22.36
2022-08-05T14:10:11.659Z,22.08
2022-08-05T14:12:40.143Z,22.72
2022-08-05T14:16:06.852Z,23.94
2022-08-05T14:18:01.855Z,25.28
2022-08-05T14:20:34.810Z,26.06
2022-08-05T14:23:02.940Z,25.32
2022-08-05T14:25:30.858Z,24.87
2022-08-05T14:27:58.880Z,24.18
2022-08-05T14:30:28.101Z,24.48
2022-08-05T14:32:57.053Z,24.30
2022-08-05T14:35:36.207Z,25.46
2022-08-05T14:38:32.655Z,25.96
2022-08-05T14:41:06.935Z,26.57
2022-08-05T14:43:51.605Z,26.58
2022-08-05T14:46:28.238Z,28.22
2022-08-05T14:48:57.769Z,27.91
2022-08-05T14:51:31.067Z,28.88
2022-08-05T14:54:06.662Z,28.69
2022-08-05T14:56:47.266Z,29.46
2022-08-05T14:59:15.493Z,29.49
2022-08-05T15:01:48.871Z,29.74
2022-08-05T15:04:17.646Z,28.35
2022-08-05T15:06:51.329Z,29.52
2022-08-05T15:09:52.562Z,29.90
2022-08-05T15:12:09.110Z,29.95
2022-08-05T15:14:42.216Z,30.73
2022-08-05T15:17:46.984Z,30.40
2022-08-05T15:20:08.129Z,32.38
2022-08-05T15:22:39.242Z,31.67
2022-08-05T15:25:13.706Z,31.53
2022-08-05T15:27:43.086Z,31.40
2022-08-05T15:30:20.709Z,31.99
2022-08-05T15:32:50.369Z,32.69
2022-08-05T15:35:18.235Z,32.43
2022-08-05T15:38:33.389Z,32.68
2022-08-05T15:41:00.214Z,32.96
2022-08-05T15:43:27.062Z,32.77
2022-08-05T15:46:00.704Z,33.55
2022-08-05T15:48:29.995Z,33.34
2022-08-05T15:51:01.050Z,33.04
2022-08-05T15:53:38.389Z,34.18
2022-08-05T15:56:18.557Z,34.67
2022-08-05T15:58:47.370Z,34.03
2022-08-05T16:01:17.415Z,33.42
2022-08-05T16:03:48.557Z,33.64
2022-08-05T16:06:20.254Z,34.88
2022-08-05T16:08:50.982Z,33.91
2022-08-05T16:11:20.882Z,34.10
2022-08-05T16:14:07.356Z,34.63
2022-08-05T16:16:36.908Z,35.15
2022-08-05T16:19:05.717Z,34.49
2022-08-05T16:22:00.484Z,34.76
2022-08-05T16:24:41.118Z,35.09
2022-08-05T16:27:16.319Z,34.44
2022-08-05T16:29:50.195Z,35.02
2022-08-05T16:32:28.829Z,34.68
2022-08-05T16:34:57.726Z,34.48
2022-08-05T16:38:16.198Z,35.37
2022-08-05T16:40:26.651Z,34.63
2022-08-05T16:42:57.241Z,33.87
2022-08-05T16:46:07.350Z,34.89
2022-08-05T16:48:25.471Z,35.20
2022-08-05T16:50:56.927Z,35.77
2022-08-05T16:53:32.202Z,35.32
2022-08-05T16:56:02.128Z,35.97
2022-08-05T16:58:30.165Z,36.08
2022-08-05T17:00:58.089Z,36.06
2022-08-05T17:03:27.210Z,34.92
2022-08-05T17:05:59.448Z,34.67
2022-08-05T17:08:33.629Z,36.12
2022-08-05T17:11:17.453Z,35.97
2022-08-05T17:13:45.618Z,35.76
2022-08-05T17:16:29.763Z,35.52
2022-08-05T17:19:01.621Z,35.60
2022-08-05T17:21:35.392Z,36.89
2022-08-05T17:24:19.735Z,37.52
2022-08-05T17:26:54.301Z,39.93
2022-08-05T17:29:39.907Z,40.33
2022-08-05T17:32:11.664Z,42.94
2022-08-05T17:34:47.683Z,43.47
2022-08-05T17:37:41.700Z,42.51
2022-08-05T17:40:10.119Z,44.41
2022-08-05T17:42:43.207Z,43.65
2022-08-05T17:45:20.566Z,43.71
2022-08-05T17:47:53.962Z,45.39
2022-08-05T17:50:28.587Z,45.55
2022-08-05T17:52:58.780Z,45.17
2022-08-05T17:55:34.253Z,44.07
2022-08-05T17:58:11.202Z,43.54
2022-08-05T18:00:45.354Z,44.16
2022-08-05T18:03:39.273Z,44.67
2022-08-05T18:06:06.320Z,45.21
2022-08-05T18:08:44.126Z,44.90
2022-08-05T18:11:24.165Z,45.54
2022-08-05T18:14:06.581Z,46.48
2022-08-05T18:16:35.292Z,47.58
2022-08-05T18:19:22.668Z,47.86
2022-08-05T18:22:07.192Z,47.56
2022-08-05T18:24:37.730Z,47.06
2022-08-05T18:27:18.573Z,47.19
2022-08-05T18:29:54.122Z,46.83
2022-08-05T18:32:28.107Z,48.71
2022-08-05T18:34:57.501Z,47.09
2022-08-05T18:37:34.826Z,47.50
2022-08-05T18:40:31.611Z,47.00
2022-08-05T18:42:57.875Z,47.21
2022-08-05T18:45:41.333Z,47.44
2022-08-05T18:48:11.124Z,47.86
2022-08-05T18:50:57.200Z,46.54
2022-08-05T18:53:32.178Z,45.04
2022-08-05T18:56:02.645Z,47.06
2022-08-05T18:58:40.467Z,47.17
2022-08-05T19:01:18.134Z,47.04
2022-08-05T19:03:55.237Z,47.22
2022-08-05T19:06:37.090Z,46.19
2022-08-05T19:09:12.379Z,46.67
2022-08-05T19:12:00.409Z,45.71
2022-08-05T19:14:37.995Z,45.27
2022-08-05T19:17:17.762Z,45.30
2022-08-05T19:19:48.637Z,44.93
2022-08-05T19:22:17.778Z,44.37
2022-08-05T19:24:54.147Z,44.47
2022-08-05T19:27:24.444Z,44.82
2022-08-05T19:29:58.255Z,43.91
2022-08-05T19:32:27.903Z,43.98
2022-08-05T19:34:56.073Z,44.25
2022-08-05T19:37:29.906Z,46.07
2022-08-05T19:40:12.708Z,46.99
2022-08-05T19:42:43.098Z,45.83
2022-08-05T19:45:33.279Z,44.90
2022-08-05T19:48:06.306Z,63.26
2022-08-05T19:50:34.915Z,67.32
2022-08-05T19:53:09.307Z,69.54
2022-08-05T19:56:15.704Z,67.05
2022-08-05T19:58:29.455Z,66.22
2022-08-05T20:00:58.188Z,65.37
2022-08-05T20:03:38.743Z,64.63
2022-08-05T20:06:11.786Z,62.73
2022-08-05T20:08:47.417Z,61.55
2022-08-05T20:11:18.061Z,62.32
2022-08-05T20:13:58.475Z,62.16
2022-08-05T20:16:35.158Z,64.72
2022-08-05T20:19:05.126Z,63.48
2022-08-05T20:21:33.276Z,62.96
2022-08-05T20:24:01.092Z,64.73
2022-08-05T20:26:29.447Z,63.39
2022-08-05T20:29:00.661Z,63.19
2022-08-05T20:31:42.134Z,63.54
2022-08-05T20:34:18.758Z,63.68
2022-08-05T20:36:47.844Z,63.60
2022-08-05T20:39:16.493Z,64.64
2022-08-05T20:41:45.253Z,61.95
2022-08-05T20:44:18.601Z,61.40
2022-08-05T20:46:57.752Z,62.33
2022-08-05T20:49:27.207Z,62.07
2022-08-05T20:51:55.943Z,64.09
2022-08-05T20:54:43.377Z,62.40
2022-08-05T20:57:15.025Z,59.48
2022-08-05T21:00:19.590Z,61.87
2022-08-05T21:02:53.138Z,59.17
2022-08-05T21:05:22.549Z,60.28
2022-08-05T21:07:51.659Z,58.59
2022-08-05T21:10:20.159Z,57.14
2022-08-05T21:12:58.142Z,56.78
2022-08-05T21:15:37.041Z,56.82
2022-08-05T21:18:05.185Z,54.46
2022-08-05T21:20:34.400Z,50.52
2022-08-05T21:23:03.085Z,51.81
2022-08-05T21:25:33.998Z,49.70
2022-08-05T21:28:02.708Z,50.70
2022-08-05T21:30:31.361Z,49.51
2022-08-05T21:32:59.739Z,49.49
2022-08-05T21:35:43.718Z,47.98
2022-08-05T21:38:19.129Z,47.48
2022-08-05T21:40:46.997Z,48.50
2022-08-05T21:43:17.683Z,49.25
2022-08-05T21:45:57.561Z,48.89
2022-08-05T21:48:28.956Z,47.70
2022-08-05T21:50:59.772Z,46.23
2022-08-05T21:53:28.945Z,46.58
2022-08-05T21:56:05.263Z,45.81
2022-08-05T21:58:42.282Z,44.88
2022-08-05T22:01:10.940Z,44.78
2022-08-05T22:03:53.100Z,44.34
2022-08-05T22:06:39.461Z,44.69
2022-08-05T22:09:13.955Z,43.21
2022-08-05T22:11:43.580Z,42.51
2022-08-05T22:14:33.746Z,42.36
2022-08-05T22:17:06.601Z,42.11
2022-08-05T22:20:00.250Z,41.87
2022-08-05T22:22:28.271Z,41.94
2022-08-05T22:25:21.715Z,40.80
2022-08-05T22:28:09.384Z,41.63
2022-08-05T22:30:44.007Z,40.80
2022-08-05T22:33:56.995Z,40.69
2022-08-05T22:36:09.556Z,40.90
2022-08-05T22:38:38.367Z,41.41
2022-08-05T22:41:11.922Z,40.93
2022-08-05T22:43:42.913Z,40.74
2022-08-05T22:46:13.149Z,40.05
2022-08-05T22:48:41.755Z,40.77
2022-08-05T22:51:16.132Z,40.07
2022-08-05T22:53:54.934Z,39.70
2022-08-05T22:56:30.732Z,40.54
2022-08-05T22:59:03.128Z,41.40
2022-08-05T23:02:03.887Z,40.80
2022-08-05T23:04:20.602Z,38.74
2022-08-05T23:06:48.346Z,39.95
2022-08-05T23:09:52.864Z,40.42
2022-08-05T23:12:06.194Z,39.90
2022-08-05T23:14:33.997Z,39.87
2022-08-05T23:17:34.918Z,39.38
2022-08-05T23:20:10.169Z,39.71
2022-08-05T23:22:47.675Z,40.50
2022-08-05T23:25:51.905Z,40.33
2022-08-05T23:28:07.675Z,39.99
2022-08-05T23:30:40.499Z,39.67
2022-08-05T23:33:16.067Z,39.82
2022-08-05T23:35:50.385Z,40.68
2022-08-05T23:38:19.305Z,39.38
2022-08-05T23:40:49.371Z,39.07
2022-08-05T23:43:25.387Z,39.12
2022-08-05T23:46:21.025Z,39.46
2022-08-05T23:48:59.817Z,39.41
2022-08-05T23:51:53.385Z,39.55
2022-08-05T23:54:25.673Z,38.00
2022-08-05T23:56:55.937Z,39.15
